createdAt,value
2023-05-07T00:00:44.282Z,12.03
2023-05-07T00:01:41.028Z,11.41
2023-05-07T00:02:39.027Z,11.24
2023-05-07T00:03:35.973Z,11.80
2023-05-07T00:04:37.713Z,12.37
2023-05-07T00:05:34.929Z,11.56
2023-05-07T00:06:33.311Z,12.39
2023-05-07T00:07:30.537Z,12.49
2023-05-07T00:08:27.343Z,12.23
2023-05-07T00:09:24.305Z,11.76
2023-05-07T00:10:21.094Z,11.62
2023-05-07T00:11:17.771Z,12.06
2023-05-07T00:12:14.802Z,12.22
2023-05-07T00:13:11.723Z,12.27
2023-05-07T00:14:08.614Z,10.69
2023-05-07T00:15:06.619Z,10.15
2023-05-07T00:16:04.776Z,11.91
2023-05-07T00:17:01.773Z,11.83
2023-05-07T00:18:00.537Z,11.04
2023-05-07T00:18:57.399Z,11.43
2023-05-07T00:19:54.152Z,11.63
2023-05-07T00:20:50.984Z,9.86
2023-05-07T00:21:47.985Z,11.42
2023-05-07T00:22:44.809Z,10.73
2023-05-07T00:23:41.602Z,11.22
2023-05-07T00:24:38.332Z,10.22
2023-05-07T00:25:35.098Z,11.16
2023-05-07T00:26:31.888Z,10.44
2023-05-07T00:27:28.683Z,10.13
2023-05-07T00:28:25.462Z,9.60
2023-05-07T00:29:22.259Z,10.52
2023-05-07T00:30:19.216Z,10.37
2023-05-07T00:31:16.061Z,10.90
2023-05-07T00:32:12.931Z,10.15
2023-05-07T00:33:09.805Z,10.70
2023-05-07T00:34:07.022Z,10.89
2023-05-07T00:35:04.809Z,10.10
2023-05-07T00:36:03.036Z,11.21
2023-05-07T00:36:59.780Z,11.18
2023-05-07T00:37:56.761Z,11.24
2023-05-07T00:38:55.839Z,10.22
2023-05-07T00:39:52.609Z,11.15
2023-05-07T00:40:49.317Z,9.99
2023-05-07T00:41:47.017Z,10.92
2023-05-07T00:42:48.121Z,11.26
2023-05-07T00:43:45.356Z,11.30
2023-05-07T00:44:42.447Z,10.53
2023-05-07T00:45:39.964Z,10.64
2023-05-07T00:46:37.027Z,11.32
2023-05-07T00:47:33.888Z,11.07
2023-05-07T00:48:31.844Z,10.18
2023-05-07T00:49:42.465Z,11.52
2023-05-07T00:50:39.356Z,11.42
2023-05-07T00:51:36.308Z,11.66
2023-05-07T00:52:33.245Z,10.80
2023-05-07T00:53:31.438Z,11.57
2023-05-07T00:54:28.254Z,10.54
2023-05-07T00:55:25.737Z,10.35
2023-05-07T00:56:23.575Z,10.61
2023-05-07T00:57:22.539Z,11.11
2023-05-07T00:58:19.870Z,10.62
2023-05-07T00:59:16.763Z,9.61
2023-05-07T01:00:14.694Z,10.29
2023-05-07T01:01:11.901Z,11.07
2023-05-07T01:02:08.836Z,11.00
2023-05-07T01:03:06.505Z,11.10
2023-05-07T01:04:03.976Z,10.30
2023-05-07T01:05:02.367Z,10.10
2023-05-07T01:06:01.882Z,10.73
2023-05-07T01:07:02.222Z,10.85
2023-05-07T01:08:01.559Z,10.70
2023-05-07T01:08:59.291Z,9.68
2023-05-07T01:09:56.301Z,10.64
2023-05-07T01:10:54.547Z,10.60
2023-05-07T01:11:52.806Z,9.42
2023-05-07T01:12:51.407Z,10.66
2023-05-07T01:13:51.468Z,10.94
2023-05-07T01:14:49.884Z,10.18
2023-05-07T01:15:46.614Z,11.05
2023-05-07T01:16:43.667Z,10.98
2023-05-07T01:17:42.842Z,9.55
2023-05-07T01:18:39.838Z,10.18
2023-05-07T01:19:37.255Z,11.12
2023-05-07T01:20:34.287Z,10.83
2023-05-07T01:21:35.854Z,9.82
2023-05-07T01:22:37.942Z,10.24
2023-05-07T01:23:36.669Z,10.18
2023-05-07T01:24:34.800Z,11.01
2023-05-07T01:25:32.065Z,11.03
2023-05-07T01:26:28.898Z,10.16
2023-05-07T01:27:25.641Z,10.73
2023-05-07T01:28:22.394Z,10.57
2023-05-07T01:29:19.101Z,9.81
2023-05-07T01:30:19.145Z,9.56
2023-05-07T01:31:18.967Z,10.64
2023-05-07T01:32:22.710Z,10.61
2023-05-07T01:33:25.253Z,10.00
2023-05-07T01:34:24.837Z,10.86
2023-05-07T01:35:30.045Z,9.76
2023-05-07T01:36:30.061Z,10.34
2023-05-07T01:37:27.529Z,10.83
2023-05-07T01:38:25.370Z,10.75
2023-05-07T01:39:25.405Z,10.82
2023-05-07T01:40:22.805Z,10.27
2023-05-07T01:41:20.836Z,10.63
2023-05-07T01:42:17.700Z,10.00
2023-05-07T01:43:14.820Z,10.41
2023-05-07T01:44:14.750Z,10.63
2023-05-07T01:45:12.396Z,10.48
2023-05-07T01:46:11.224Z,8.93
2023-05-07T01:47:09.573Z,10.06
2023-05-07T01:48:08.636Z,10.18
2023-05-07T01:49:05.767Z,10.14
2023-05-07T01:50:02.520Z,9.35
2023-05-07T01:51:00.173Z,10.28
2023-05-07T01:51:57.034Z,9.59
2023-05-07T01:52:53.900Z,9.72
2023-05-07T01:53:51.881Z,10.14
2023-05-07T01:54:48.636Z,9.69
2023-05-07T01:55:47.983Z,9.54
2023-05-07T01:56:44.837Z,9.66
2023-05-07T01:57:42.064Z,10.58
2023-05-07T01:58:38.926Z,9.63
2023-05-07T01:59:35.906Z,9.60
2023-05-07T02:00:33.073Z,10.46
2023-05-07T02:01:30.043Z,9.88
2023-05-07T02:02:26.969Z,9.60
2023-05-07T02:03:23.986Z,10.34
2023-05-07T02:04:20.940Z,9.92
2023-05-07T02:05:17.703Z,9.59
2023-05-07T02:06:14.452Z,10.38
2023-05-07T02:07:11.218Z,8.62
2023-05-07T02:08:08.131Z,8.72
2023-05-07T02:09:04.934Z,9.44
2023-05-07T02:10:01.664Z,10.85
2023-05-07T02:10:58.407Z,10.50
2023-05-07T02:11:55.107Z,10.61
2023-05-07T02:12:51.842Z,10.57
2023-05-07T02:13:48.569Z,9.80
2023-05-07T02:14:45.268Z,10.72
2023-05-07T02:15:41.992Z,10.50
2023-05-07T02:16:38.751Z,9.96
2023-05-07T02:17:36.371Z,10.55
2023-05-07T02:18:33.135Z,9.84
2023-05-07T02:19:29.953Z,9.91
2023-05-07T02:20:27.035Z,10.66
2023-05-07T02:21:23.752Z,10.50
2023-05-07T02:22:20.542Z,8.36
2023-05-07T02:23:17.329Z,10.20
2023-05-07T02:24:14.096Z,9.67
2023-05-07T02:25:10.865Z,10.46
2023-05-07T02:26:07.696Z,10.66
2023-05-07T02:27:04.452Z,10.57
2023-05-07T02:28:01.284Z,10.13
2023-05-07T02:28:58.030Z,9.85
2023-05-07T02:29:54.760Z,10.27
2023-05-07T02:30:51.658Z,10.33
2023-05-07T02:31:51.927Z,7.66
2023-05-07T02:32:48.800Z,8.42
2023-05-07T02:33:46.544Z,9.61
2023-05-07T02:34:43.342Z,9.62
2023-05-07T02:35:40.128Z,10.43
2023-05-07T02:36:36.990Z,9.72
2023-05-07T02:37:33.843Z,9.75
2023-05-07T02:38:30.631Z,10.14
2023-05-07T02:39:27.495Z,10.66
2023-05-07T02:40:24.362Z,10.56
2023-05-07T02:41:21.607Z,10.28
2023-05-07T02:42:18.443Z,9.69
2023-05-07T02:43:15.355Z,9.52
2023-05-07T02:44:12.217Z,9.00
2023-05-07T02:45:09.689Z,10.02
2023-05-07T02:46:08.872Z,10.10
2023-05-07T02:47:06.012Z,9.88
2023-05-07T02:48:02.913Z,10.39
2023-05-07T02:48:59.753Z,10.12
2023-05-07T02:49:56.568Z,10.19
2023-05-07T02:50:53.291Z,9.13
2023-05-07T02:51:50.154Z,9.24
2023-05-07T02:52:47.872Z,9.22
2023-05-07T02:53:44.584Z,9.75
2023-05-07T02:54:41.446Z,9.96
2023-05-07T02:55:38.205Z,9.25
2023-05-07T02:56:35.002Z,10.26
2023-05-07T02:57:31.798Z,9.33
2023-05-07T02:58:28.906Z,9.97
2023-05-07T02:59:27.291Z,10.18
2023-05-07T03:00:24.940Z,9.13
2023-05-07T03:01:22.095Z,9.51
2023-05-07T03:02:18.947Z,8.96
2023-05-07T03:03:16.135Z,9.22
2023-05-07T03:04:12.922Z,9.84
2023-05-07T03:05:10.178Z,9.09
2023-05-07T03:06:07.776Z,9.33
2023-05-07T03:07:04.605Z,8.87
2023-05-07T03:08:01.338Z,9.17
2023-05-07T03:08:58.146Z,9.78
2023-05-07T03:09:54.930Z,8.60
2023-05-07T03:10:51.831Z,9.53
2023-05-07T03:11:48.767Z,9.53
2023-05-07T03:12:45.770Z,9.89
2023-05-07T03:13:42.573Z,9.56
2023-05-07T03:14:39.306Z,9.91
2023-05-07T03:15:36.438Z,9.58
2023-05-07T03:16:33.449Z,9.05
2023-05-07T03:17:30.227Z,9.68
2023-05-07T03:18:27.037Z,9.35
2023-05-07T03:19:23.946Z,9.75
2023-05-07T03:20:20.862Z,9.84
2023-05-07T03:21:17.663Z,9.58
2023-05-07T03:22:15.054Z,9.89
2023-05-07T03:23:11.786Z,8.83
2023-05-07T03:24:08.609Z,9.85
2023-05-07T03:25:05.846Z,9.70
2023-05-07T03:26:02.619Z,9.24
2023-05-07T03:26:59.346Z,9.09
2023-05-07T03:27:56.153Z,9.26
2023-05-07T03:28:53.166Z,8.87
2023-05-07T03:29:50.004Z,8.89
2023-05-07T03:30:46.755Z,8.64
2023-05-07T03:31:43.651Z,9.76
2023-05-07T03:32:40.788Z,8.74
2023-05-07T03:33:50.993Z,9.54
2023-05-07T03:34:47.717Z,9.43
2023-05-07T03:35:44.638Z,7.13
2023-05-07T03:36:41.449Z,9.51
2023-05-07T03:37:39.409Z,9.43
2023-05-07T03:38:36.147Z,9.39
2023-05-07T03:39:33.251Z,9.05
2023-05-07T03:40:30.192Z,10.02
2023-05-07T03:41:27.187Z,9.93
2023-05-07T03:42:24.419Z,10.05
2023-05-07T03:43:21.266Z,10.02
2023-05-07T03:44:18.049Z,9.09
2023-05-07T03:45:14.841Z,9.46
2023-05-07T03:46:11.809Z,9.26
2023-05-07T03:47:08.966Z,10.06
2023-05-07T03:48:05.799Z,9.10
2023-05-07T03:49:02.549Z,8.79
2023-05-07T03:50:00.469Z,9.96
2023-05-07T03:50:59.128Z,10.07
2023-05-07T03:51:56.713Z,9.68
2023-05-07T03:52:53.481Z,9.41
2023-05-07T03:53:50.409Z,9.01
2023-05-07T03:54:47.245Z,8.60
2023-05-07T03:55:43.997Z,10.37
2023-05-07T03:56:41.079Z,10.26
2023-05-07T03:57:37.887Z,9.55
2023-05-07T03:58:34.856Z,7.93
2023-05-07T03:59:31.629Z,9.55
2023-05-07T04:00:28.548Z,10.46
2023-05-07T04:01:25.415Z,8.53
2023-05-07T04:02:22.167Z,10.17
2023-05-07T04:03:19.085Z,9.11
2023-05-07T04:04:16.877Z,10.03
2023-05-07T04:05:16.333Z,10.09
2023-05-07T04:06:13.299Z,10.93
2023-05-07T04:07:10.843Z,10.74
2023-05-07T04:08:26.391Z,11.04
2023-05-07T04:09:23.149Z,10.57
2023-05-07T04:10:19.863Z,10.25
2023-05-07T04:11:16.602Z,10.23
2023-05-07T04:12:13.374Z,10.94
2023-05-07T04:13:10.213Z,10.61
2023-05-07T04:14:07.474Z,9.06
2023-05-07T04:15:04.708Z,10.90
2023-05-07T04:16:04.342Z,10.42
2023-05-07T04:17:01.149Z,11.04
2023-05-07T04:17:58.000Z,10.28
2023-05-07T04:18:54.786Z,10.37
2023-05-07T04:19:51.609Z,9.40
2023-05-07T04:20:50.383Z,10.92
2023-05-07T04:21:47.241Z,10.84
2023-05-07T04:22:44.224Z,9.99
2023-05-07T04:23:40.972Z,10.17
2023-05-07T04:24:37.753Z,10.35
2023-05-07T04:25:35.033Z,10.07
2023-05-07T04:26:32.635Z,9.99
2023-05-07T04:27:29.432Z,10.41
2023-05-07T04:28:26.827Z,10.64
2023-05-07T04:29:23.739Z,9.19
2023-05-07T04:30:20.732Z,11.05
2023-05-07T04:31:17.788Z,11.59
2023-05-07T04:32:14.891Z,10.20
2023-05-07T04:33:12.665Z,10.74
2023-05-07T04:34:10.143Z,11.48
2023-05-07T04:35:08.068Z,11.53
2023-05-07T04:36:05.426Z,10.62
2023-05-07T04:37:02.643Z,10.96
2023-05-07T04:37:59.529Z,10.09
2023-05-07T04:38:56.340Z,11.38
2023-05-07T04:39:53.243Z,10.63
2023-05-07T04:40:50.238Z,11.42
2023-05-07T04:41:47.184Z,11.27
2023-05-07T04:42:43.992Z,11.31
2023-05-07T04:43:41.217Z,11.26
2023-05-07T04:44:38.319Z,11.41
2023-05-07T04:45:35.123Z,10.52
2023-05-07T04:46:32.006Z,10.42
2023-05-07T04:47:29.091Z,11.38
2023-05-07T04:48:26.084Z,10.72
2023-05-07T04:49:22.823Z,11.19
2023-05-07T04:50:20.923Z,10.98
2023-05-07T04:51:17.810Z,11.05
2023-05-07T04:52:14.635Z,12.05
2023-05-07T04:53:11.451Z,11.85
2023-05-07T04:54:08.256Z,8.99
2023-05-07T04:55:05.598Z,10.02
2023-05-07T04:56:02.388Z,10.95
2023-05-07T04:56:59.202Z,11.59
2023-05-07T04:57:56.035Z,11.76
2023-05-07T04:58:52.835Z,11.44
2023-05-07T04:59:49.552Z,12.12
2023-05-07T05:00:46.351Z,11.03
2023-05-07T05:01:43.275Z,12.36
2023-05-07T05:02:40.084Z,11.89
2023-05-07T05:03:37.080Z,10.02
2023-05-07T05:04:33.858Z,12.36
2023-05-07T05:05:30.609Z,10.68
2023-05-07T05:06:27.396Z,9.70
2023-05-07T05:07:24.199Z,12.22
2023-05-07T05:08:21.042Z,12.42
2023-05-07T05:09:17.886Z,12.30
2023-05-07T05:10:14.872Z,12.62
2023-05-07T05:11:11.704Z,13.01
2023-05-07T05:12:08.604Z,12.36
2023-05-07T05:13:05.404Z,12.62
2023-05-07T05:14:03.049Z,12.70
2023-05-07T05:14:59.803Z,12.20
2023-05-07T05:15:57.030Z,12.25
2023-05-07T05:16:54.044Z,11.64
2023-05-07T05:18:09.069Z,12.92
2023-05-07T05:19:06.155Z,12.45
2023-05-07T05:20:03.453Z,12.49
2023-05-07T05:21:00.282Z,12.90
2023-05-07T05:21:57.119Z,12.84
2023-05-07T05:22:53.964Z,12.17
2023-05-07T05:23:51.219Z,12.91
2023-05-07T05:24:48.009Z,11.73
2023-05-07T05:25:44.795Z,12.70
2023-05-07T05:26:41.627Z,11.82
2023-05-07T05:27:38.400Z,12.63
2023-05-07T05:28:35.403Z,12.23
2023-05-07T05:29:32.800Z,13.07
2023-05-07T05:30:29.525Z,12.67
2023-05-07T05:31:26.460Z,12.59
2023-05-07T05:32:23.468Z,13.28
2023-05-07T05:33:20.547Z,13.22
2023-05-07T05:34:18.345Z,13.10
2023-05-07T05:35:15.170Z,12.52
2023-05-07T05:36:13.112Z,11.66
2023-05-07T05:37:09.928Z,13.45
2023-05-07T05:38:06.770Z,13.35
2023-05-07T05:39:03.534Z,11.14
2023-05-07T05:40:00.325Z,13.45
2023-05-07T05:40:57.072Z,11.59
2023-05-07T05:41:53.787Z,13.90
2023-05-07T05:43:09.223Z,14.02
2023-05-07T05:44:05.950Z,15.02
2023-05-07T05:45:02.821Z,14.28
2023-05-07T05:46:00.082Z,14.69
2023-05-07T05:46:58.690Z,13.63
2023-05-07T05:47:57.706Z,12.87
2023-05-07T05:48:54.498Z,13.70
2023-05-07T05:49:51.376Z,14.03
2023-05-07T05:50:48.121Z,12.30
2023-05-07T05:51:44.885Z,13.08
2023-05-07T05:52:41.890Z,14.78
2023-05-07T05:53:38.659Z,14.22
2023-05-07T05:54:35.356Z,14.86
2023-05-07T05:55:33.502Z,14.01
2023-05-07T05:56:30.361Z,14.65
2023-05-07T05:57:28.783Z,14.86
2023-05-07T05:58:25.992Z,14.33
2023-05-07T05:59:22.942Z,14.67
2023-05-07T06:00:20.041Z,14.86
2023-05-07T06:01:18.164Z,14.15
2023-05-07T06:02:14.987Z,14.17
2023-05-07T06:03:12.011Z,14.32
2023-05-07T06:04:08.835Z,14.98
2023-05-07T06:05:06.179Z,13.39
2023-05-07T06:06:03.284Z,15.08
2023-05-07T06:07:00.048Z,14.84
2023-05-07T06:07:57.204Z,14.07
2023-05-07T06:08:54.073Z,14.42
2023-05-07T06:09:50.976Z,15.30
2023-05-07T06:10:47.919Z,15.09
2023-05-07T06:11:47.324Z,13.74
2023-05-07T06:12:44.537Z,14.52
2023-05-07T06:13:41.380Z,15.26
2023-05-07T06:14:38.206Z,15.51
2023-05-07T06:15:35.014Z,15.38
2023-05-07T06:16:31.832Z,14.54
2023-05-07T06:17:28.744Z,15.91
2023-05-07T06:18:26.089Z,14.88
2023-05-07T06:19:24.974Z,14.83
2023-05-07T06:20:21.747Z,15.02
2023-05-07T06:21:18.568Z,13.91
2023-05-07T06:22:15.376Z,14.34
2023-05-07T06:23:12.122Z,13.81
2023-05-07T06:24:09.123Z,14.61
2023-05-07T06:25:06.422Z,14.81
2023-05-07T06:26:03.383Z,14.19
2023-05-07T06:27:00.176Z,15.51
2023-05-07T06:27:56.970Z,15.58
2023-05-07T06:28:53.794Z,15.88
2023-05-07T06:29:50.918Z,15.60
2023-05-07T06:30:47.644Z,15.53
2023-05-07T06:31:44.413Z,15.81
2023-05-07T06:32:42.055Z,14.43
2023-05-07T06:33:38.959Z,15.15
2023-05-07T06:34:35.883Z,14.94
2023-05-07T06:35:32.706Z,15.77
2023-05-07T06:36:29.686Z,15.78
2023-05-07T06:37:26.938Z,16.26
2023-05-07T06:38:23.683Z,16.71
2023-05-07T06:39:20.527Z,16.98
2023-05-07T06:40:17.779Z,16.65
2023-05-07T06:41:14.507Z,16.84
2023-05-07T06:42:11.402Z,16.03
2023-05-07T06:43:08.165Z,15.80
2023-05-07T06:44:05.130Z,16.70
2023-05-07T06:45:02.071Z,16.24
2023-05-07T06:45:58.959Z,16.49
2023-05-07T06:46:55.725Z,15.19
2023-05-07T06:47:52.489Z,16.28
2023-05-07T06:48:49.304Z,15.93
2023-05-07T06:49:46.400Z,15.64
2023-05-07T06:50:43.255Z,15.78
2023-05-07T06:51:40.337Z,15.77
2023-05-07T06:52:37.462Z,16.29
2023-05-07T06:53:34.204Z,16.18
2023-05-07T06:54:31.066Z,16.46
2023-05-07T06:55:27.908Z,16.08
2023-05-07T06:56:24.860Z,16.24
2023-05-07T06:57:21.551Z,15.85
2023-05-07T06:58:18.286Z,16.79
2023-05-07T06:59:15.339Z,15.64
2023-05-07T07:00:12.799Z,15.81
2023-05-07T07:01:09.813Z,16.93
2023-05-07T07:02:07.149Z,15.79
2023-05-07T07:03:04.043Z,16.05
2023-05-07T07:04:01.617Z,16.76
2023-05-07T07:04:58.508Z,16.95
2023-05-07T07:05:56.141Z,16.37
2023-05-07T07:06:54.775Z,16.32
2023-05-07T07:07:53.808Z,16.87
2023-05-07T07:08:50.675Z,16.48
2023-05-07T07:09:47.458Z,16.79
2023-05-07T07:10:46.854Z,17.21
2023-05-07T07:11:43.599Z,16.58
2023-05-07T07:12:40.684Z,16.77
2023-05-07T07:13:37.846Z,17.14
2023-05-07T07:14:34.681Z,17.38
2023-05-07T07:15:31.470Z,16.25
2023-05-07T07:16:28.290Z,17.34
2023-05-07T07:17:25.113Z,17.18
2023-05-07T07:18:21.878Z,16.76
2023-05-07T07:19:18.771Z,17.61
2023-05-07T07:20:15.836Z,16.91
2023-05-07T07:21:12.975Z,17.03
2023-05-07T07:22:09.739Z,16.96
2023-05-07T07:23:06.625Z,17.25
2023-05-07T07:24:03.757Z,15.90
2023-05-07T07:25:00.618Z,16.29
2023-05-07T07:25:57.600Z,16.71
2023-05-07T07:26:56.428Z,17.19
2023-05-07T07:27:53.187Z,17.39
2023-05-07T07:28:49.986Z,16.87
2023-05-07T07:29:46.807Z,16.78
2023-05-07T07:30:43.596Z,17.32
2023-05-07T07:31:40.410Z,16.82
2023-05-07T07:32:37.385Z,17.84
2023-05-07T07:33:34.113Z,18.21
2023-05-07T07:34:31.222Z,16.35
2023-05-07T07:35:28.034Z,17.58
2023-05-07T07:36:29.502Z,18.44
2023-05-07T07:37:35.821Z,18.52
2023-05-07T07:38:32.554Z,18.05
2023-05-07T07:39:29.344Z,18.24
2023-05-07T07:40:26.889Z,16.68
2023-05-07T07:41:23.688Z,17.74
2023-05-07T07:42:20.617Z,16.54
2023-05-07T07:43:17.401Z,18.06
2023-05-07T07:44:15.982Z,17.16
2023-05-07T07:45:13.763Z,17.85
2023-05-07T07:46:10.627Z,17.13
2023-05-07T07:47:07.471Z,17.46
2023-05-07T07:48:04.379Z,18.38
2023-05-07T07:49:01.125Z,17.93
2023-05-07T07:49:58.005Z,17.75
2023-05-07T07:50:54.829Z,18.00
2023-05-07T07:51:52.199Z,18.09
2023-05-07T07:52:50.408Z,18.16
2023-05-07T07:53:47.192Z,17.39
2023-05-07T07:54:44.085Z,18.60
2023-05-07T07:55:41.461Z,16.63
2023-05-07T07:56:38.498Z,18.58
2023-05-07T07:57:35.511Z,18.34
2023-05-07T07:58:32.736Z,16.76
2023-05-07T07:59:29.559Z,18.08
2023-05-07T08:00:26.464Z,19.12
2023-05-07T08:01:23.193Z,18.88
2023-05-07T08:02:20.131Z,18.99
2023-05-07T08:03:17.828Z,19.21
2023-05-07T08:04:14.836Z,19.31
2023-05-07T08:05:11.983Z,19.00
2023-05-07T08:06:09.003Z,17.41
2023-05-07T08:07:05.741Z,17.75
2023-05-07T08:08:02.565Z,18.77
2023-05-07T08:08:59.295Z,17.98
2023-05-07T08:09:56.115Z,17.40
2023-05-07T08:10:52.947Z,18.39
2023-05-07T08:11:49.824Z,18.97
2023-05-07T08:12:46.689Z,18.91
2023-05-07T08:13:44.094Z,17.28
2023-05-07T08:14:40.951Z,19.08
2023-05-07T08:15:37.957Z,19.08
2023-05-07T08:16:34.860Z,19.13
2023-05-07T08:17:31.766Z,18.97
2023-05-07T08:18:30.079Z,18.51
2023-05-07T08:19:26.924Z,19.33
2023-05-07T08:20:23.754Z,19.10
2023-05-07T08:21:21.260Z,18.66
2023-05-07T08:22:19.540Z,17.87
2023-05-07T08:23:16.452Z,19.54
2023-05-07T08:24:13.312Z,19.00
2023-05-07T08:25:10.396Z,18.44
2023-05-07T08:26:09.062Z,18.26
2023-05-07T08:27:05.854Z,17.24
2023-05-07T08:28:02.788Z,18.94
2023-05-07T08:28:59.569Z,19.15
2023-05-07T08:29:56.284Z,18.54
2023-05-07T08:30:53.219Z,19.23
2023-05-07T08:31:50.044Z,19.48
2023-05-07T08:32:46.780Z,19.42
2023-05-07T08:33:43.657Z,18.87
2023-05-07T08:34:40.492Z,19.33
2023-05-07T08:35:37.416Z,19.15
2023-05-07T08:36:34.388Z,19.71
2023-05-07T08:37:31.424Z,19.40
2023-05-07T08:38:28.162Z,19.99
2023-05-07T08:39:24.973Z,19.02
2023-05-07T08:40:27.469Z,20.17
2023-05-07T08:41:24.521Z,20.11
2023-05-07T08:42:24.894Z,20.30
2023-05-07T08:43:23.349Z,20.11
2023-05-07T08:44:24.060Z,19.63
2023-05-07T08:45:22.147Z,20.24
2023-05-07T08:46:21.935Z,20.32
2023-05-07T08:47:22.074Z,20.04
2023-05-07T08:48:26.253Z,19.89
2023-05-07T08:49:23.152Z,18.78
2023-05-07T08:50:21.548Z,20.61
2023-05-07T08:51:21.159Z,20.58
2023-05-07T08:52:18.239Z,20.04
2023-05-07T08:53:17.914Z,20.50
2023-05-07T08:54:17.721Z,19.78
2023-05-07T08:55:15.265Z,20.31
2023-05-07T08:56:13.244Z,20.10
2023-05-07T08:57:10.110Z,20.22
2023-05-07T08:58:06.998Z,19.94
2023-05-07T08:59:04.806Z,19.90
2023-05-07T09:00:01.982Z,20.94
2023-05-07T09:01:02.694Z,20.96
2023-05-07T09:01:59.615Z,20.75
2023-05-07T09:02:56.975Z,21.26
2023-05-07T09:03:54.529Z,21.01
2023-05-07T09:04:52.074Z,21.14
2023-05-07T09:05:49.010Z,18.18
2023-05-07T09:06:45.939Z,20.00
2023-05-07T09:07:42.701Z,19.24
2023-05-07T09:08:39.457Z,19.31
2023-05-07T09:09:36.199Z,19.57
2023-05-07T09:10:34.709Z,20.13
2023-05-07T09:11:31.549Z,19.48
2023-05-07T09:12:28.472Z,19.61
2023-05-07T09:13:25.975Z,19.98
2023-05-07T09:14:22.976Z,19.96
2023-05-07T09:15:20.181Z,20.95
2023-05-07T09:16:17.146Z,19.92
2023-05-07T09:17:16.257Z,21.13
2023-05-07T09:18:16.659Z,21.26
2023-05-07T09:19:13.642Z,21.12
2023-05-07T09:20:11.202Z,20.94
2023-05-07T09:21:11.205Z,21.36
2023-05-07T09:22:08.525Z,21.72
2023-05-07T09:23:05.772Z,20.10
2023-05-07T09:24:02.616Z,20.89
2023-05-07T09:24:59.447Z,20.30
2023-05-07T09:26:01.432Z,20.46
2023-05-07T09:27:03.239Z,20.56
2023-05-07T09:28:01.607Z,19.99
2023-05-07T09:28:58.522Z,21.13
2023-05-07T09:29:55.458Z,21.64
2023-05-07T09:30:52.274Z,20.63
2023-05-07T09:31:49.102Z,20.23
2023-05-07T09:32:45.954Z,21.08
2023-05-07T09:33:42.806Z,21.08
2023-05-07T09:34:39.613Z,21.89
2023-05-07T09:35:36.387Z,21.78
2023-05-07T09:36:34.043Z,21.29
2023-05-07T09:37:33.407Z,21.67
2023-05-07T09:38:30.268Z,21.79
2023-05-07T09:39:27.100Z,21.36
2023-05-07T09:40:29.086Z,21.66
2023-05-07T09:41:26.060Z,20.77
2023-05-07T09:42:27.634Z,21.38
2023-05-07T09:43:24.531Z,20.93
2023-05-07T09:44:22.942Z,20.12
2023-05-07T09:45:38.126Z,21.13
2023-05-07T09:46:39.404Z,20.27
2023-05-07T09:47:40.706Z,20.83
2023-05-07T09:48:42.916Z,20.48
2023-05-07T09:49:43.401Z,20.47
2023-05-07T09:50:53.038Z,20.71
2023-05-07T09:51:51.756Z,20.46
2023-05-07T09:52:49.817Z,20.31
2023-05-07T09:53:47.365Z,20.79
2023-05-07T09:54:45.164Z,20.34
2023-05-07T09:55:42.589Z,21.40
2023-05-07T09:56:43.006Z,21.34
2023-05-07T09:57:40.740Z,21.08
2023-05-07T09:58:40.679Z,20.25
2023-05-07T09:59:39.523Z,20.98
2023-05-07T10:00:38.290Z,21.41
2023-05-07T10:01:38.121Z,21.08
2023-05-07T10:02:38.086Z,20.52
2023-05-07T10:03:37.578Z,20.71
2023-05-07T10:04:35.531Z,21.27
2023-05-07T10:05:33.842Z,19.93
2023-05-07T10:06:32.192Z,21.31
2023-05-07T10:07:30.030Z,20.68
2023-05-07T10:08:26.892Z,21.29
2023-05-07T10:09:24.113Z,20.60
2023-05-07T10:10:21.383Z,21.35
2023-05-07T10:11:18.908Z,19.94
2023-05-07T10:12:16.768Z,20.96
2023-05-07T10:13:14.093Z,20.98
2023-05-07T10:14:11.827Z,21.66
2023-05-07T10:15:13.219Z,21.27
2023-05-07T10:16:10.623Z,20.74
2023-05-07T10:17:08.903Z,21.28
2023-05-07T10:18:07.646Z,21.96
2023-05-07T10:19:06.101Z,21.44
2023-05-07T10:20:04.499Z,21.49
2023-05-07T10:21:09.123Z,21.24
2023-05-07T10:22:10.161Z,21.35
2023-05-07T10:23:11.187Z,21.95
2023-05-07T10:24:27.310Z,21.37
2023-05-07T10:25:30.067Z,22.29
2023-05-07T10:26:31.007Z,21.33
2023-05-07T10:27:28.395Z,21.87
2023-05-07T10:28:29.116Z,21.76
2023-05-07T10:29:48.739Z,22.52
2023-05-07T10:31:02.093Z,22.54
2023-05-07T10:32:34.373Z,22.75
2023-05-07T10:33:35.114Z,22.06
2023-05-07T10:34:38.726Z,22.57
2023-05-07T10:35:45.533Z,22.61
2023-05-07T10:36:43.406Z,22.13
2023-05-07T10:37:41.842Z,21.91
2023-05-07T10:38:39.334Z,22.49
2023-05-07T10:39:36.370Z,22.18
2023-05-07T10:40:34.056Z,22.63
2023-05-07T10:41:31.295Z,22.04
2023-05-07T10:42:28.222Z,22.92
2023-05-07T10:43:25.106Z,22.03
2023-05-07T10:44:29.730Z,22.30
2023-05-07T10:45:27.172Z,23.00
2023-05-07T10:46:24.161Z,23.07
2023-05-07T10:47:21.161Z,22.17
2023-05-07T10:48:28.935Z,22.93
2023-05-07T10:49:27.324Z,22.83
2023-05-07T10:50:24.660Z,22.95
2023-05-07T10:51:23.338Z,22.12
2023-05-07T10:52:24.435Z,22.93
2023-05-07T10:53:25.276Z,22.82
2023-05-07T10:54:23.703Z,21.89
2023-05-07T10:55:22.695Z,21.60
2023-05-07T10:56:19.831Z,22.47
2023-05-07T10:57:38.491Z,22.21
2023-05-07T10:58:37.972Z,21.90
2023-05-07T10:59:41.808Z,22.71
2023-05-07T11:00:39.596Z,22.58
2023-05-07T11:01:55.176Z,22.39
2023-05-07T11:03:03.864Z,22.48
2023-05-07T11:04:18.431Z,22.26
2023-05-07T11:05:22.855Z,22.04
2023-05-07T11:06:19.897Z,20.71
2023-05-07T11:07:26.361Z,22.16
2023-05-07T11:08:23.228Z,21.20
2023-05-07T11:09:20.181Z,22.13
2023-05-07T11:10:17.124Z,22.23
2023-05-07T11:11:13.978Z,22.30
2023-05-07T11:12:10.761Z,21.87
2023-05-07T11:13:07.605Z,21.60
2023-05-07T11:14:04.451Z,21.62
2023-05-07T11:15:01.504Z,21.42
2023-05-07T11:15:59.871Z,21.86
2023-05-07T11:17:04.737Z,22.29
2023-05-07T11:18:01.610Z,21.98
2023-05-07T11:18:58.516Z,21.70
2023-05-07T11:19:56.980Z,22.03
2023-05-07T11:20:59.703Z,22.03
2023-05-07T11:21:56.591Z,21.91
2023-05-07T11:22:56.097Z,21.80
2023-05-07T11:23:57.430Z,21.85
2023-05-07T11:24:54.446Z,21.80
2023-05-07T11:25:51.849Z,22.41
2023-05-07T11:26:50.552Z,22.53
2023-05-07T11:27:48.147Z,20.47
2023-05-07T11:28:45.089Z,22.19
2023-05-07T11:29:48.479Z,21.24
2023-05-07T11:30:45.728Z,22.24
2023-05-07T11:31:43.559Z,19.74
2023-05-07T11:32:40.940Z,21.78
2023-05-07T11:33:39.347Z,22.56
2023-05-07T11:34:37.112Z,21.74
2023-05-07T11:35:37.165Z,22.73
2023-05-07T11:36:34.817Z,22.65
2023-05-07T11:37:31.636Z,21.56
2023-05-07T11:38:30.734Z,22.64
2023-05-07T11:39:33.958Z,22.65
2023-05-07T11:40:49.217Z,22.33
2023-05-07T11:41:45.977Z,22.48
2023-05-07T11:42:45.588Z,21.86
2023-05-07T11:43:57.124Z,22.72
2023-05-07T11:44:53.908Z,22.65
2023-05-07T11:45:51.448Z,22.15
2023-05-07T11:46:48.376Z,22.21
2023-05-07T11:47:45.230Z,23.14
2023-05-07T11:48:42.658Z,22.72
2023-05-07T11:49:39.480Z,22.42
2023-05-07T11:50:36.298Z,23.33
2023-05-07T11:51:33.266Z,21.29
2023-05-07T11:52:30.066Z,22.81
2023-05-07T11:53:28.785Z,22.00
2023-05-07T11:54:26.267Z,22.14
2023-05-07T11:55:25.848Z,22.76
2023-05-07T11:56:22.582Z,22.53
2023-05-07T11:57:20.972Z,22.12
2023-05-07T11:58:24.061Z,22.68
2023-05-07T11:59:20.834Z,21.24
2023-05-07T12:00:17.974Z,21.39
2023-05-07T12:01:16.692Z,22.00
2023-05-07T12:02:15.793Z,21.90
2023-05-07T12:03:12.636Z,21.97
2023-05-07T12:04:09.650Z,22.01
2023-05-07T12:05:06.955Z,22.17
2023-05-07T12:06:06.338Z,22.04
2023-05-07T12:07:03.108Z,22.43
2023-05-07T12:07:59.881Z,22.24
2023-05-07T12:08:56.820Z,22.74
2023-05-07T12:09:54.968Z,22.20
2023-05-07T12:10:52.379Z,22.87
2023-05-07T12:11:49.704Z,21.55
2023-05-07T12:12:47.708Z,22.38
2023-05-07T12:13:44.785Z,23.03
2023-05-07T12:14:43.230Z,23.12
2023-05-07T12:15:39.963Z,22.53
2023-05-07T12:16:37.077Z,22.88
2023-05-07T12:17:34.075Z,22.01
2023-05-07T12:18:31.740Z,22.49
2023-05-07T12:19:30.347Z,22.13
2023-05-07T12:20:27.382Z,22.93
2023-05-07T12:21:25.630Z,22.92
2023-05-07T12:22:23.161Z,21.95
2023-05-07T12:23:21.373Z,23.14
2023-05-07T12:24:21.990Z,23.25
2023-05-07T12:25:21.066Z,23.26
2023-05-07T12:26:18.135Z,22.79
2023-05-07T12:27:18.815Z,23.53
2023-05-07T12:28:17.579Z,23.77
2023-05-07T12:29:14.455Z,23.18
2023-05-07T12:30:12.661Z,23.74
2023-05-07T12:31:09.872Z,22.79